sensor_id;sensor_type;location;lat;lon;timestamp;pressure;altitude;pressure_sealevel;temperature;humidity
55070;BME280;40967;52.070;8.596;2023-07-28T00:00:56;99326.38;;;17.35;100.00
55070;BME280;40967;52.070;8.596;2023-07-28T00:03:21;99329.22;;;17.39;100.00
55070;BME280;40967;52.070;8.596;2023-07-28T00:05:47;99341.22;;;17.46;100.00
55070;BME280;40967;52.070;8.596;2023-07-28T00:08:12;99294.59;;;17.10;100.00
55070;BME280;40967;52.070;8.596;2023-07-28T00:10:41;99332.75;;;17.39;100.00
55070;BME280;40967;52.070;8.596;2023-07-28T00:13:07;99301.91;;;17.18;100.00
55070;BME280;40967;52.070;8.596;2023-07-28T00:15:33;99298.03;;;17.19;100.00
55070;BME280;40967;52.070;8.596;2023-07-28T00:17:58;99300.31;;;17.17;100.00
55070;BME280;40967;52.070;8.596;2023-07-28T00:20:25;99288.53;;;17.17;100.00
55070;BME280;40967;52.070;8.596;2023-07-28T00:22:52;99316.88;;;17.33;100.00
55070;BME280;40967;52.070;8.596;2023-07-28T00:25:18;99332.06;;;17.42;100.00
55070;BME280;40967;52.070;8.596;2023-07-28T00:27:43;99314.25;;;17.36;100.00
55070;BME280;40967;52.070;8.596;2023-07-28T00:30:10;99294.13;;;17.20;100.00
55070;BME280;40967;52.070;8.596;2023-07-28T00:32:36;99314.25;;;17.36;100.00
55070;BME280;40967;52.070;8.596;2023-07-28T00:35:01;99329.34;;;17.42;100.00
55070;BME280;40967;52.070;8.596;2023-07-28T00:37:27;99327.38;;;17.43;100.00
55070;BME280;40967;52.070;8.596;2023-07-28T00:39:52;99318.13;;;17.35;100.00
55070;BME280;40967;52.070;8.596;2023-07-28T00:42:17;99300.53;;;17.24;100.00
55070;BME280;40967;52.070;8.596;2023-07-28T00:44:43;99288.66;;;17.20;100.00
55070;BME280;40967;52.070;8.596;2023-07-28T00:47:08;99342.16;;;17.50;100.00
55070;BME280;40967;52.070;8.596;2023-07-28T00:49:33;99298.59;;;17.25;100.00
55070;BME280;40967;52.070;8.596;2023-07-28T00:51:59;99275.16;;;17.15;100.00
55070;BME280;40967;52.070;8.596;2023-07-28T00:54:25;99344.53;;;17.52;100.00
55070;BME280;40967;52.070;8.596;2023-07-28T00:56:51;99328.31;;;17.47;100.00
55070;BME280;40967;52.070;8.596;2023-07-28T00:59:16;99321.09;;;17.42;100.00
55070;BME280;40967;52.070;8.596;2023-07-28T01:01:42;99312.19;;;17.33;100.00
55070;BME280;40967;52.070;8.596;2023-07-28T01:04:07;99321.34;;;17.37;100.00
55070;BME280;40967;52.070;8.596;2023-07-28T01:06:42;99348.78;;;17.49;100.00
55070;BME280;40967;52.070;8.596;2023-07-28T01:09:13;99301.22;;;17.21;100.00
55070;BME280;40967;52.070;8.596;2023-07-28T01:12:01;99331.50;;;17.37;100.00
55070;BME280;40967;52.070;8.596;2023-07-28T01:14:32;99331.97;;;17.39;100.00
55070;BME280;40967;52.070;8.596;2023-07-28T01:16:57;99304.31;;;17.20;100.00
55070;BME280;40967;52.070;8.596;2023-07-28T01:19:22;99291.38;;;17.08;100.00
55070;BME280;40967;52.070;8.596;2023-07-28T01:21:54;99324.97;;;17.29;100.00
55070;BME280;40967;52.070;8.596;2023-07-28T01:27:17;99358.50;;;17.47;100.00
55070;BME280;40967;52.070;8.596;2023-07-28T01:29:44;99349.31;;;17.43;100.00
55070;BME280;40967;52.070;8.596;2023-07-28T01:32:11;99351.94;;;17.39;100.00
55070;BME280;40967;52.070;8.596;2023-07-28T01:34:36;99335.94;;;17.29;100.00
55070;BME280;40967;52.070;8.596;2023-07-28T01:37:02;99343.94;;;17.34;100.00
55070;BME280;40967;52.070;8.596;2023-07-28T01:39:27;99312.41;;;17.16;100.00
55070;BME280;40967;52.070;8.596;2023-07-28T01:41:52;99347.16;;;17.36;100.00
55070;BME280;40967;52.070;8.596;2023-07-28T01:44:18;99324.75;;;17.22;100.00
55070;BME280;40967;52.070;8.596;2023-07-28T01:46:43;99311.84;;;17.11;100.00
55070;BME280;40967;52.070;8.596;2023-07-28T01:49:08;99337.44;;;17.27;100.00
55070;BME280;40967;52.070;8.596;2023-07-28T01:51:34;99307.16;;;17.11;100.00
55070;BME280;40967;52.070;8.596;2023-07-28T01:53:59;99320.41;;;17.09;100.00
55070;BME280;40967;52.070;8.596;2023-07-28T01:56:24;99316.50;;;17.10;100.00
55070;BME280;40967;52.070;8.596;2023-07-28T01:58:49;99350.91;;;17.32;100.00
55070;BME280;40967;52.070;8.596;2023-07-28T02:01:15;99328.53;;;17.18;100.00
55070;BME280;40967;52.070;8.596;2023-07-28T02:03:45;99328.06;;;17.16;100.00
55070;BME280;40967;52.070;8.596;2023-07-28T02:06:10;99325.31;;;17.16;100.00
55070;BME280;40967;52.070;8.596;2023-07-28T02:08:36;99328.41;;;17.14;100.00
55070;BME280;40967;52.070;8.596;2023-07-28T02:11:01;99331.03;;;17.23;100.00
55070;BME280;40967;52.070;8.596;2023-07-28T02:13:26;99342.00;;;17.23;100.00
55070;BME280;40967;52.070;8.596;2023-07-28T02:15:52;99354.25;;;17.37;100.00
55070;BME280;40967;52.070;8.596;2023-07-28T02:18:17;99322.13;;;17.14;100.00
55070;BME280;40967;52.070;8.596;2023-07-28T02:20:42;99314.69;;;17.14;100.00
55070;BME280;40967;52.070;8.596;2023-07-28T02:23:08;99318.91;;;17.12;100.00
55070;BME280;40967;52.070;8.596;2023-07-28T02:25:33;99345.44;;;17.32;100.00
55070;BME280;40967;52.070;8.596;2023-07-28T02:27:58;99341.31;;;17.26;100.00
55070;BME280;40967;52.070;8.596;2023-07-28T02:30:24;99318.34;;;17.06;100.00
55070;BME280;40967;52.070;8.596;2023-07-28T02:32:49;99368.38;;;17.39;100.00
55070;BME280;40967;52.070;8.596;2023-07-28T02:35:14;99349.19;;;17.27;100.00
55070;BME280;40967;52.070;8.596;2023-07-28T02:37:40;99341.78;;;17.28;100.00
55070;BME280;40967;52.070;8.596;2023-07-28T02:40:06;99358.22;;;17.40;100.00
55070;BME280;40967;52.070;8.596;2023-07-28T02:42:32;99335.72;;;17.22;100.00
55070;BME280;40967;52.070;8.596;2023-07-28T02:44:59;99349.41;;;17.34;100.00
55070;BME280;40967;52.070;8.596;2023-07-28T02:47:24;99369.78;;;17.45;100.00
55070;BME280;40967;52.070;8.596;2023-07-28T02:49:49;99357.75;;;17.38;100.00
55070;BME280;40967;52.070;8.596;2023-07-28T02:52:15;99345.31;;;17.28;100.00
55070;BME280;40967;52.070;8.596;2023-07-28T02:54:40;99331.38;;;17.21;100.00
55070;BME280;40967;52.070;8.596;2023-07-28T02:57:06;99326.13;;;17.16;100.00
55070;BME280;40967;52.070;8.596;2023-07-28T02:59:31;99314.59;;;17.11;100.00
55070;BME280;40967;52.070;8.596;2023-07-28T03:01:56;99311.84;;;17.11;100.00
55070;BME280;40967;52.070;8.596;2023-07-28T03:04:22;99373.00;;;17.47;100.00
55070;BME280;40967;52.070;8.596;2023-07-28T03:06:48;99333.31;;;17.21;100.00
55070;BME280;40967;52.070;8.596;2023-07-28T03:09:13;99351.28;;;17.30;100.00
55070;BME280;40967;52.070;8.596;2023-07-28T03:11:38;99376.56;;;17.48;100.00
55070;BME280;40967;52.070;8.596;2023-07-28T03:14:04;99343.47;;;17.20;100.00
55070;BME280;40967;52.070;8.596;2023-07-28T03:16:29;99316.28;;;17.03;100.00
55070;BME280;40967;52.070;8.596;2023-07-28T03:18:54;99364.63;;;17.32;100.00
55070;BME280;40967;52.070;8.596;2023-07-28T03:21:20;99361.31;;;17.26;100.00
55070;BME280;40967;52.070;8.596;2023-07-28T03:23:45;99353.31;;;17.21;100.00
55070;BME280;40967;52.070;8.596;2023-07-28T03:26:10;99331.38;;;17.09;100.00
55070;BME280;40967;52.070;8.596;2023-07-28T03:28:36;99330.91;;;17.07;100.00
55070;BME280;40967;52.070;8.596;2023-07-28T03:31:01;99356.97;;;17.25;100.00
55070;BME280;40967;52.070;8.596;2023-07-28T03:33:27;99332.97;;;17.10;100.00
55070;BME280;40967;52.070;8.596;2023-07-28T03:35:52;99383.13;;;17.35;100.00
55070;BME280;40967;52.070;8.596;2023-07-28T03:38:17;99362.34;;;17.22;100.00
55070;BME280;40967;52.070;8.596;2023-07-28T03:40:44;99354.22;;;17.13;100.00
55070;BME280;40967;52.070;8.596;2023-07-28T03:43:09;99344.38;;;17.12;100.00
55070;BME280;40967;52.070;8.596;2023-07-28T03:45:35;99345.53;;;17.11;100.00
55070;BME280;40967;52.070;8.596;2023-07-28T03:48:00;99391.94;;;17.40;100.00
55070;BME280;40967;52.070;8.596;2023-07-28T03:50:25;99355.00;;;17.14;100.00
55070;BME280;40967;52.070;8.596;2023-07-28T03:52:51;99362.09;;;17.15;100.00
55070;BME280;40967;52.070;8.596;2023-07-28T03:55:17;99406.13;;;17.42;100.00
55070;BME280;40967;52.070;8.596;2023-07-28T03:57:42;99404.84;;;17.40;100.00
55070;BME280;40967;52.070;8.596;2023-07-28T04:00:11;99386.69;;;17.35;100.00
55070;BME280;40967;52.070;8.596;2023-07-28T04:02:36;99362.09;;;17.15;100.00
55070;BME280;40967;52.070;8.596;2023-07-28T04:05:01;99373.31;;;17.22;100.00
55070;BME280;40967;52.070;8.596;2023-07-28T04:07:27;99390.13;;;17.32;100.00
55070;BME280;40967;52.070;8.596;2023-07-28T04:09:52;99359.72;;;17.13;100.00
55070;BME280;40967;52.070;8.596;2023-07-28T04:12:17;99360.38;;;17.10;100.00
55070;BME280;40967;52.070;8.596;2023-07-28T04:14:43;99408.38;;;17.40;100.00
55070;BME280;40967;52.070;8.596;2023-07-28T04:17:08;99336.84;;;16.97;100.00
55070;BME280;40967;52.070;8.596;2023-07-28T04:19:34;99403.25;;;17.39;100.00
55070;BME280;40967;52.070;8.596;2023-07-28T04:22:00;99367.72;;;17.18;100.00
55070;BME280;40967;52.070;8.596;2023-07-28T04:24:26;99402.22;;;17.43;100.00
55070;BME280;40967;52.070;8.596;2023-07-28T04:26:51;99366.22;;;17.21;100.00
55070;BME280;40967;52.070;8.596;2023-07-28T04:29:17;99385.06;;;17.34;100.00
55070;BME280;40967;52.070;8.596;2023-07-28T04:31:42;99382.44;;;17.26;100.00
55070;BME280;40967;52.070;8.596;2023-07-28T04:34:07;99407.03;;;17.46;100.00
55070;BME280;40967;52.070;8.596;2023-07-28T04:36:34;99398.78;;;17.34;100.00
55070;BME280;40967;52.070;8.596;2023-07-28T04:38:59;99382.78;;;17.24;100.00
55070;BME280;40967;52.070;8.596;2023-07-28T04:41:24;99383.00;;;17.19;100.00
55070;BME280;40967;52.070;8.596;2023-07-28T04:43:50;99430.78;;;17.42;100.00
55070;BME280;40967;52.070;8.596;2023-07-28T04:46:16;99363.31;;;17.05;100.00
55070;BME280;40967;52.070;8.596;2023-07-28T04:48:41;99371.31;;;17.10;100.00
55070;BME280;40967;52.070;8.596;2023-07-28T04:51:06;99389.63;;;17.18;100.00
55070;BME280;40967;52.070;8.596;2023-07-28T04:53:32;99380.13;;;17.16;100.00
55070;BME280;40967;52.070;8.596;2023-07-28T04:55:57;99420.28;;;17.44;100.00
55070;BME280;40967;52.070;8.596;2023-07-28T04:58:22;99385.75;;;17.19;100.00
55070;BME280;40967;52.070;8.596;2023-07-28T05:00:48;99424.97;;;17.44;100.00
55070;BME280;40967;52.070;8.596;2023-07-28T05:03:13;99407.56;;;17.28;100.00
55070;BME280;40967;52.070;8.596;2023-07-28T05:05:38;99379.22;;;17.12;100.00
55070;BME280;40967;52.070;8.596;2023-07-28T05:08:04;99392.16;;;17.23;100.00
55070;BME280;40967;52.070;8.596;2023-07-28T05:10:32;99407.81;;;17.35;100.00
55070;BME280;40967;52.070;8.596;2023-07-28T05:12:57;99377.84;;;17.18;100.00
55070;BME280;40967;52.070;8.596;2023-07-28T05:15:43;99395.13;;;17.18;100.00
55070;BME280;40967;52.070;8.596;2023-07-28T05:18:08;99348.56;;;16.97;100.00
55070;BME280;40967;52.070;8.596;2023-07-28T05:20:34;99353.53;;;17.04;100.00
55070;BME280;40967;52.070;8.596;2023-07-28T05:22:59;99375.13;;;17.18;100.00
55070;BME280;40967;52.070;8.596;2023-07-28T05:25:24;99344.38;;;17.00;100.00
55070;BME280;40967;52.070;8.596;2023-07-28T05:27:50;99380.00;;;17.12;100.00
55070;BME280;40967;52.070;8.596;2023-07-28T05:33:22;99392.81;;;17.20;100.00
55070;BME280;40967;52.070;8.596;2023-07-28T05:36:04;99396.94;;;17.26;100.00
55070;BME280;40967;52.070;8.596;2023-07-28T05:38:29;99443.28;;;17.52;100.00
55070;BME280;40967;52.070;8.596;2023-07-28T05:41:03;99450.50;;;17.56;100.00
55070;BME280;40967;52.070;8.596;2023-07-28T05:43:29;99449.81;;;17.59;100.00
55070;BME280;40967;52.070;8.596;2023-07-28T05:45:57;99459.75;;;17.64;100.00
55070;BME280;40967;52.070;8.596;2023-07-28T05:48:22;99458.28;;;17.66;100.00
55070;BME280;40967;52.070;8.596;2023-07-28T05:50:48;99462.25;;;17.69;100.00
55070;BME280;40967;52.070;8.596;2023-07-28T05:53:13;99463.75;;;17.66;100.00
55070;BME280;40967;52.070;8.596;2023-07-28T05:55:39;99463.75;;;17.66;100.00
55070;BME280;40967;52.070;8.596;2023-07-28T05:58:05;99468.91;;;17.68;100.00
55070;BME280;40967;52.070;8.596;2023-07-28T06:00:30;99470.19;;;17.70;100.00
55070;BME280;40967;52.070;8.596;2023-07-28T06:02:56;99471.88;;;17.75;100.00
55070;BME280;40967;52.070;8.596;2023-07-28T06:05:22;99468.78;;;17.76;100.00
55070;BME280;40967;52.070;8.596;2023-07-28T06:07:47;99472.47;;;17.80;100.00
55070;BME280;40967;52.070;8.596;2023-07-28T06:10:13;99478.41;;;17.82;100.00
55070;BME280;40967;52.070;8.596;2023-07-28T06:12:38;99470.19;;;17.82;100.00
55070;BME280;40967;52.070;8.596;2023-07-28T06:15:04;99471.78;;;17.83;100.00
55070;BME280;40967;52.070;8.596;2023-07-28T06:17:29;99479.66;;;17.85;100.00
55070;BME280;40967;52.070;8.596;2023-07-28T06:19:55;99481.72;;;17.88;100.00
55070;BME280;40967;52.070;8.596;2023-07-28T06:22:20;99488.00;;;17.88;100.00
55070;BME280;40967;52.070;8.596;2023-07-28T06:24:46;99493.97;;;17.90;100.00
55070;BME280;40967;52.070;8.596;2023-07-28T06:27:11;99491.22;;;17.90;100.00
55070;BME280;40967;52.070;8.596;2023-07-28T06:29:36;99503.34;;;17.89;100.00
55070;BME280;40967;52.070;8.596;2023-07-28T06:32:02;99499.34;;;17.87;100.00
55070;BME280;40967;52.070;8.596;2023-07-28T06:34:28;99501.97;;;17.83;100.00
55070;BME280;40967;52.070;8.596;2023-07-28T06:36:53;99507.91;;;17.85;100.00
55070;BME280;40967;52.070;8.596;2023-07-28T06:39:19;99508.03;;;17.89;100.00
55070;BME280;40967;52.070;8.596;2023-07-28T06:41:44;99511.13;;;17.87;100.00
55070;BME280;40967;52.070;8.596;2023-07-28T06:44:09;99518.06;;;17.85;100.00
55070;BME280;40967;52.070;8.596;2023-07-28T06:46:35;99521.63;;;17.85;100.00
55070;BME280;40967;52.070;8.596;2023-07-28T06:49:00;99523.69;;;17.88;100.00
55070;BME280;40967;52.070;8.596;2023-07-28T06:51:26;99527.59;;;17.87;100.00
55070;BME280;40967;52.070;8.596;2023-07-28T06:53:51;99525.97;;;17.86;100.00
55070;BME280;40967;52.070;8.596;2023-07-28T06:56:17;99533.06;;;17.87;100.00
55070;BME280;40967;52.070;8.596;2023-07-28T06:58:42;99535.94;;;17.91;100.00
55070;BME280;40967;52.070;8.596;2023-07-28T07:01:07;99534.09;;;17.95;100.00
55070;BME280;40967;52.070;8.596;2023-07-28T07:03:37;99530.69;;;17.98;100.00
55070;BME280;40967;52.070;8.596;2023-07-28T07:06:02;99534.66;;;18.00;100.00
55070;BME280;40967;52.070;8.596;2023-07-28T07:08:28;99537.53;;;18.04;100.00
55070;BME280;40967;52.070;8.596;2023-07-28T07:10:53;99530.00;;;18.01;100.00
55070;BME280;40967;52.070;8.596;2023-07-28T07:13:19;99547.75;;;18.16;100.00
55070;BME280;40967;52.070;8.596;2023-07-28T07:15:45;99542.78;;;18.21;100.00
55070;BME280;40967;52.070;8.596;2023-07-28T07:18:11;99553.22;;;18.28;100.00
55070;BME280;40967;52.070;8.596;2023-07-28T07:20:37;99547.84;;;18.31;100.00
55070;BME280;40967;52.070;8.596;2023-07-28T07:23:04;99545.78;;;18.28;100.00
55070;BME280;40967;52.070;8.596;2023-07-28T07:25:29;99549.78;;;18.31;100.00
55070;BME280;40967;52.070;8.596;2023-07-28T07:27:55;99554.94;;;18.32;100.00
55070;BME280;40967;52.070;8.596;2023-07-28T07:30:21;99560.44;;;18.32;100.00
55070;BME280;40967;52.070;8.596;2023-07-28T07:32:46;99537.19;;;18.17;100.00
55070;BME280;40967;52.070;8.596;2023-07-28T07:35:11;99558.38;;;18.29;100.00
55070;BME280;40967;52.070;8.596;2023-07-28T07:37:38;99558.84;;;18.31;100.00
55070;BME280;40967;52.070;8.596;2023-07-28T07:40:05;99566.72;;;18.33;100.00
55070;BME280;40967;52.070;8.596;2023-07-28T07:42:42;99569.59;;;18.36;100.00
55070;BME280;40967;52.070;8.596;2023-07-28T07:45:10;99577.94;;;18.40;100.00
55070;BME280;40967;52.070;8.596;2023-07-28T07:47:35;99574.66;;;18.46;100.00
55070;BME280;40967;52.070;8.596;2023-07-28T07:50:01;99559.84;;;18.39;100.00
55070;BME280;40967;52.070;8.596;2023-07-28T07:52:26;99581.94;;;18.54;100.00
55070;BME280;40967;52.070;8.596;2023-07-28T07:54:51;99580.03;;;18.55;100.00
55070;BME280;40967;52.070;8.596;2023-07-28T07:57:17;99580.94;;;18.59;100.00
55070;BME280;40967;52.070;8.596;2023-07-28T07:59:42;99576.13;;;18.56;100.00
55070;BME280;40967;52.070;8.596;2023-07-28T08:02:08;99592.41;;;18.61;100.00
55070;BME280;40967;52.070;8.596;2023-07-28T08:04:33;99586.19;;;18.64;100.00
55070;BME280;40967;52.070;8.596;2023-07-28T08:06:59;99577.25;;;18.67;100.00
55070;BME280;40967;52.070;8.596;2023-07-28T08:09:24;99586.19;;;18.76;100.00
55070;BME280;40967;52.070;8.596;2023-07-28T08:11:50;99584.00;;;18.81;100.00
55070;BME280;40967;52.070;8.596;2023-07-28T08:14:15;99578.63;;;18.85;100.00
55070;BME280;40967;52.070;8.596;2023-07-28T08:16:41;99588.28;;;19.06;100.00
55070;BME280;40967;52.070;8.596;2023-07-28T08:19:06;99590.88;;;19.15;100.00
55070;BME280;40967;52.070;8.596;2023-07-28T08:21:32;99591.56;;;19.24;100.00
55070;BME280;40967;52.070;8.596;2023-07-28T08:24:02;99598.78;;;19.29;100.00
55070;BME280;40967;52.070;8.596;2023-07-28T08:26:31;99589.25;;;19.38;100.00
55070;BME280;40967;52.070;8.596;2023-07-28T08:28:56;99597.44;;;19.50;100.00
55070;BME280;40967;52.070;8.596;2023-07-28T08:31:22;99587.19;;;19.63;100.00
55070;BME280;40967;52.070;8.596;2023-07-28T08:33:47;99589.06;;;19.74;100.00
55070;BME280;40967;52.070;8.596;2023-07-28T08:36:13;99579.59;;;19.87;100.00
55070;BME280;40967;52.070;8.596;2023-07-28T08:38:38;99588.22;;;20.01;100.00
55070;BME280;40967;52.070;8.596;2023-07-28T08:41:07;99580.28;;;20.27;100.00
55070;BME280;40967;52.070;8.596;2023-07-28T08:43:32;99591.53;;;20.54;100.00
55070;BME280;40967;52.070;8.596;2023-07-28T08:45:57;99595.94;;;20.74;100.00
55070;BME280;40967;52.070;8.596;2023-07-28T08:48:26;99601.13;;;20.94;100.00
55070;BME280;40967;52.070;8.596;2023-07-28T08:50:52;99604.81;;;20.98;100.00
55070;BME280;40967;52.070;8.596;2023-07-28T08:53:18;99608.59;;;20.94;100.00
55070;BME280;40967;52.070;8.596;2023-07-28T08:55:43;99609.09;;;20.80;100.00
55070;BME280;40967;52.070;8.596;2023-07-28T08:58:15;99607.78;;;20.74;100.00
55070;BME280;40967;52.070;8.596;2023-07-28T09:00:41;99616.91;;;20.78;100.00
55070;BME280;40967;52.070;8.596;2023-07-28T09:03:10;99611.03;;;20.95;100.00
55070;BME280;40967;52.070;8.596;2023-07-28T09:05:36;99607.06;;;21.12;100.00
55070;BME280;40967;52.070;8.596;2023-07-28T09:08:02;99616.63;;;21.33;100.00
55070;BME280;40967;52.070;8.596;2023-07-28T09:10:40;99618.28;;;21.57;100.00
55070;BME280;40967;52.070;8.596;2023-07-28T09:13:09;99622.47;;;21.70;100.00
55070;BME280;40967;52.070;8.596;2023-07-28T09:15:39;99625.13;;;21.63;100.00
55070;BME280;40967;52.070;8.596;2023-07-28T09:18:09;99631.63;;;21.74;100.00
55070;BME280;40967;52.070;8.596;2023-07-28T09:20:37;99632.59;;;21.63;100.00
55070;BME280;40967;52.070;8.596;2023-07-28T09:23:03;99640.88;;;21.43;100.00
55070;BME280;40967;52.070;8.596;2023-07-28T09:25:31;99622.84;;;21.30;100.00
55070;BME280;40967;52.070;8.596;2023-07-28T09:27:56;99634.25;;;21.29;100.00
55070;BME280;40967;52.070;8.596;2023-07-28T09:30:23;99636.63;;;21.30;100.00
55070;BME280;40967;52.070;8.596;2023-07-28T09:32:52;99640.78;;;21.40;100.00
55070;BME280;40967;52.070;8.596;2023-07-28T09:35:19;99651.47;;;21.61;100.00
55070;BME280;40967;52.070;8.596;2023-07-28T09:37:46;99630.13;;;21.77;100.00
55070;BME280;40967;52.070;8.596;2023-07-28T09:40:16;99637.16;;;21.74;100.00
55070;BME280;40967;52.070;8.596;2023-07-28T09:42:43;99640.81;;;21.78;100.00
55070;BME280;40967;52.070;8.596;2023-07-28T09:45:11;99645.31;;;21.86;100.00
55070;BME280;40967;52.070;8.596;2023-07-28T09:47:37;99647.47;;;21.77;100.00
55070;BME280;40967;52.070;8.596;2023-07-28T09:50:05;99650.22;;;21.77;100.00
55070;BME280;40967;52.070;8.596;2023-07-28T09:52:38;99644.63;;;21.74;100.00
55070;BME280;40967;52.070;8.596;2023-07-28T09:55:07;99644.50;;;22.05;100.00
55070;BME280;40967;52.070;8.596;2023-07-28T09:57:38;99640.00;;;22.42;99.90
55070;BME280;40967;52.070;8.596;2023-07-28T10:00:07;99657.84;;;22.67;97.21
55070;BME280;40967;52.070;8.596;2023-07-28T10:02:34;99655.88;;;22.94;95.34
55070;BME280;40967;52.070;8.596;2023-07-28T10:05:00;99655.50;;;22.95;92.60
55070;BME280;40967;52.070;8.596;2023-07-28T10:07:26;99661.91;;;22.99;93.03
55070;BME280;40967;52.070;8.596;2023-07-28T10:09:52;99663.59;;;23.30;94.32
55070;BME280;40967;52.070;8.596;2023-07-28T10:12:21;99659.06;;;23.48;92.20
55070;BME280;40967;52.070;8.596;2023-07-28T10:15:02;99670.94;;;23.48;90.95
55070;BME280;40967;52.070;8.596;2023-07-28T10:17:34;99660.09;;;23.36;89.30
55070;BME280;40967;52.070;8.596;2023-07-28T10:20:04;99669.81;;;23.01;89.79
55070;BME280;40967;52.070;8.596;2023-07-28T10:22:46;99669.97;;;22.85;92.13
55070;BME280;40967;52.070;8.596;2023-07-28T10:25:22;99680.03;;;22.71;91.90
55070;BME280;40967;52.070;8.596;2023-07-28T10:27:50;99670.38;;;22.61;92.94
55070;BME280;40967;52.070;8.596;2023-07-28T10:30:16;99669.91;;;22.36;94.21
55070;BME280;40967;52.070;8.596;2023-07-28T10:32:44;99679.38;;;22.13;96.05
55070;BME280;40967;52.070;8.596;2023-07-28T10:37:39;99678.28;;;21.98;98.73
55070;BME280;40967;52.070;8.596;2023-07-28T10:42:50;99685.72;;;21.94;99.24
55070;BME280;40967;52.070;8.596;2023-07-28T10:45:16;99696.34;;;21.92;99.12
55070;BME280;40967;52.070;8.596;2023-07-28T10:47:42;99686.59;;;21.79;98.94
55070;BME280;40967;52.070;8.596;2023-07-28T10:50:09;99690.38;;;21.90;98.22
55070;BME280;40967;52.070;8.596;2023-07-28T10:52:38;99690.94;;;21.99;97.52
55070;BME280;40967;52.070;8.596;2023-07-28T10:55:04;99695.31;;;22.00;97.01
55070;BME280;40967;52.070;8.596;2023-07-28T10:57:30;99696.84;;;21.98;96.70
55070;BME280;40967;52.070;8.596;2023-07-28T11:00:00;99704.16;;;22.09;96.59
55070;BME280;40967;52.070;8.596;2023-07-28T11:02:26;99704.03;;;22.02;98.52
55070;BME280;40967;52.070;8.596;2023-07-28T11:04:52;99694.28;;;21.89;100.00
55070;BME280;40967;52.070;8.596;2023-07-28T11:07:17;99708.94;;;21.74;100.00
55070;BME280;40967;52.070;8.596;2023-07-28T11:09:43;99703.28;;;21.67;100.00
55070;BME280;40967;52.070;8.596;2023-07-28T11:12:09;99707.56;;;21.65;100.00
55070;BME280;40967;52.070;8.596;2023-07-28T11:14:35;99708.78;;;21.67;100.00
55070;BME280;40967;52.070;8.596;2023-07-28T11:17:01;99702.47;;;21.67;100.00
55070;BME280;40967;52.070;8.596;2023-07-28T11:19:27;99694.69;;;21.72;100.00
55070;BME280;40967;52.070;8.596;2023-07-28T11:21:52;99685.66;;;21.91;100.00
55070;BME280;40967;52.070;8.596;2023-07-28T11:24:19;99686.22;;;22.00;100.00
55070;BME280;40967;52.070;8.596;2023-07-28T11:26:45;99682.38;;;22.04;100.00
55070;BME280;40967;52.070;8.596;2023-07-28T11:29:11;99688.25;;;22.03;100.00
55070;BME280;40967;52.070;8.596;2023-07-28T11:31:37;99682.38;;;22.04;100.00
55070;BME280;40967;52.070;8.596;2023-07-28T11:34:21;99678.44;;;22.05;100.00
55070;BME280;40967;52.070;8.596;2023-07-28T11:36:47;99682.19;;;22.16;100.00
55070;BME280;40967;52.070;8.596;2023-07-28T11:39:13;99679.50;;;22.20;100.00
55070;BME280;40967;52.070;8.596;2023-07-28T11:41:39;99690.25;;;22.47;100.00
55070;BME280;40967;52.070;8.596;2023-07-28T11:44:06;99694.06;;;22.59;99.18
55070;BME280;40967;52.070;8.596;2023-07-28T11:46:36;99684.44;;;22.52;97.82
55070;BME280;40967;52.070;8.596;2023-07-28T11:49:18;99685.59;;;22.51;96.50
55070;BME280;40967;52.070;8.596;2023-07-28T11:51:49;99684.59;;;22.60;95.77
55070;BME280;40967;52.070;8.596;2023-07-28T11:54:17;99694.38;;;22.80;96.08
55070;BME280;40967;52.070;8.596;2023-07-28T11:56:48;99694.34;;;23.02;93.73
55070;BME280;40967;52.070;8.596;2023-07-28T11:59:18;99692.66;;;23.20;93.04
55070;BME280;40967;52.070;8.596;2023-07-28T12:01:57;99690.19;;;23.38;91.57
55070;BME280;40967;52.070;8.596;2023-07-28T12:04:27;99701.97;;;23.61;90.42
55070;BME280;40967;52.070;8.596;2023-07-28T12:09:54;99689.41;;;24.00;86.63
55070;BME280;40967;52.070;8.596;2023-07-28T12:12:24;99697.16;;;23.88;85.88
55070;BME280;40967;52.070;8.596;2023-07-28T12:14:52;99694.34;;;23.84;86.80
55070;BME280;40967;52.070;8.596;2023-07-28T12:17:19;99694.66;;;23.79;86.23
55070;BME280;40967;52.070;8.596;2023-07-28T12:19:58;99696.03;;;23.92;85.61
55070;BME280;40967;52.070;8.596;2023-07-28T12:22:25;99688.97;;;23.98;85.41
55070;BME280;40967;52.070;8.596;2023-07-28T12:24:51;99699.38;;;24.08;84.22
55070;BME280;40967;52.070;8.596;2023-07-28T12:27:17;99705.84;;;24.19;84.17
55070;BME280;40967;52.070;8.596;2023-07-28T12:29:43;99714.69;;;24.28;84.59
55070;BME280;40967;52.070;8.596;2023-07-28T12:32:08;99708.06;;;24.40;84.19
55070;BME280;40967;52.070;8.596;2023-07-28T12:34:34;99703.75;;;24.42;82.93
55070;BME280;40967;52.070;8.596;2023-07-28T12:36:59;99701.31;;;24.37;83.10
55070;BME280;40967;52.070;8.596;2023-07-28T12:39:24;99705.38;;;24.50;83.00
55070;BME280;40967;52.070;8.596;2023-07-28T12:41:50;99704.31;;;24.65;81.14
55070;BME280;40967;52.070;8.596;2023-07-28T12:44:22;99705.28;;;24.80;80.61
55070;BME280;40967;52.070;8.596;2023-07-28T12:46:47;99699.50;;;24.99;79.21
55070;BME280;40967;52.070;8.596;2023-07-28T12:49:13;99694.94;;;25.24;77.73
55070;BME280;40967;52.070;8.596;2023-07-28T12:51:40;99692.28;;;25.42;75.63
55070;BME280;40967;52.070;8.596;2023-07-28T12:54:05;99695.88;;;25.46;75.85
55070;BME280;40967;52.070;8.596;2023-07-28T12:56:30;99692.34;;;25.49;75.26
55070;BME280;40967;52.070;8.596;2023-07-28T12:58:56;99693.94;;;25.53;76.08
55070;BME280;40967;52.070;8.596;2023-07-28T13:01:21;99683.28;;;25.66;75.12
55070;BME280;40967;52.070;8.596;2023-07-28T13:03:46;99692.09;;;25.89;73.54